Brownstown, Michigan
Current Conditions -  °F | °C
As of 10:53 AM on Wednesday 28 Jan 2015 (Local Time) from KDTW Reporting Station
Scattered Clouds Scattered Clouds  
Wind Chill: 22°   Ceiling: Unl
Heat Index: 22°   Visibility: 10mi
Dew Point: 14°   Wind: 0mph
Humidity: 72%   Direction: NA
Pressure: 30.36"   Gusts: NA
Location:  42.1166°N, 83.4023°W
Report Text: KDTW 281553Z 00000KT 10SM SCT230 M06/M10 A3036 RMK AO2 SLP292 T10561100
Loading
Personal Weather Stations






























Interactive Weather Map New forecast layout! Learn more

10-Day Weather Forecast

Advertisements
Track Severe Weather on mobile